createdAt,value
2023-05-01T00:02:03.409Z,30.48
2023-05-01T00:06:06.350Z,30.00
2023-05-01T00:10:09.614Z,26.52
2023-05-01T00:14:12.527Z,32.45
2023-05-01T00:18:16.676Z,40.20
2023-05-01T00:22:19.398Z,33.20
2023-05-01T00:26:22.224Z,40.00
2023-05-01T00:30:25.233Z,38.40
2023-05-01T00:34:30.374Z,37.65
2023-05-01T00:38:33.212Z,30.92
2023-05-01T00:42:37.234Z,33.67
2023-05-01T00:46:39.957Z,37.92
2023-05-01T00:50:44.477Z,32.67
2023-05-01T00:54:52.024Z,29.67
2023-05-01T00:58:55.205Z,24.20
2023-05-01T01:02:58.448Z,24.40
2023-05-01T01:07:09.710Z,30.15
2023-05-01T01:11:16.501Z,25.00
2023-05-01T01:15:25.203Z,31.42
2023-05-01T01:19:58.476Z,26.35
2023-05-01T01:24:18.186Z,35.42
2023-05-01T01:28:56.594Z,26.00
2023-05-01T01:33:26.642Z,25.52
2023-05-01T01:37:35.471Z,30.00
2023-05-01T01:41:40.124Z,27.50
2023-05-01T01:45:44.767Z,38.58
2023-05-01T01:49:51.348Z,30.52
2023-05-01T01:53:58.416Z,30.45
2023-05-01T01:58:02.230Z,24.08
2023-05-01T02:02:06.261Z,21.60
2023-05-01T02:06:10.046Z,21.48
2023-05-01T02:10:15.022Z,20.40
2023-05-01T02:14:20.029Z,20.80
2023-05-01T02:18:23.132Z,25.40
2023-05-01T02:22:26.803Z,17.58
2023-05-01T02:26:31.846Z,20.60
2023-05-01T02:30:34.681Z,14.63
2023-05-01T02:34:37.586Z,20.90
2023-05-01T02:38:40.470Z,17.20
2023-05-01T02:42:44.914Z,19.02
2023-05-01T02:46:48.530Z,18.77
2023-05-01T02:50:51.818Z,19.58
2023-05-01T02:54:54.716Z,13.48
2023-05-01T02:58:59.288Z,17.30
2023-05-01T03:03:02.222Z,20.30
2023-05-01T03:07:05.592Z,13.40
2023-05-01T03:11:08.543Z,13.40
2023-05-01T03:15:13.405Z,17.13
2023-05-01T03:19:16.185Z,20.38
2023-05-01T03:23:19.036Z,12.77
2023-05-01T03:27:21.839Z,20.42
2023-05-01T03:31:26.005Z,13.95
2023-05-01T03:35:29.344Z,14.82
2023-05-01T03:39:32.648Z,21.05
2023-05-01T03:43:35.738Z,15.75
2023-05-01T03:47:40.144Z,18.35
2023-05-01T03:51:42.857Z,16.85
2023-05-01T03:55:45.869Z,17.95
2023-05-01T03:59:48.699Z,15.95
2023-05-01T04:03:53.336Z,16.80
2023-05-01T04:07:56.391Z,19.48
2023-05-01T04:11:59.122Z,13.85
2023-05-01T04:16:02.093Z,18.58
2023-05-01T04:20:07.406Z,15.30
2023-05-01T04:24:10.134Z,17.30
2023-05-01T04:28:13.298Z,16.10
2023-05-01T04:32:17.162Z,18.58
2023-05-01T04:40:24.286Z,13.68
2023-05-01T04:44:27.473Z,15.75
2023-05-01T04:48:30.527Z,13.63
2023-05-01T04:52:35.968Z,15.05
2023-05-01T04:56:38.994Z,22.08
2023-05-01T05:00:41.952Z,21.52
2023-05-01T05:04:44.805Z,18.50
2023-05-01T05:08:51.971Z,14.38
2023-05-01T05:12:54.775Z,11.13
2023-05-01T05:16:57.579Z,12.80
2023-05-01T05:21:04.610Z,13.30
2023-05-01T05:25:10.092Z,11.52
2023-05-01T05:29:12.816Z,14.48
2023-05-01T05:33:15.562Z,12.18
2023-05-01T05:37:18.449Z,10.38
2023-05-01T05:41:22.949Z,12.93
2023-05-01T05:45:25.748Z,13.20
2023-05-01T05:49:28.963Z,10.07
2023-05-01T05:53:32.210Z,9.88
2023-05-01T05:57:37.708Z,9.65
2023-05-01T06:01:42.942Z,9.27
2023-05-01T06:05:45.972Z,9.07
2023-05-01T06:09:48.752Z,6.70
2023-05-01T06:13:53.066Z,12.73
2023-05-01T06:17:56.457Z,5.95
2023-05-01T06:21:59.323Z,7.10
2023-05-01T06:26:02.267Z,4.68
2023-05-01T06:30:07.951Z,3.50
2023-05-01T06:34:10.668Z,3.47
2023-05-01T06:38:13.797Z,2.70
2023-05-01T06:42:16.947Z,4.82
2023-05-01T06:46:21.756Z,3.42
2023-05-01T06:50:24.531Z,3.35
2023-05-01T06:54:27.581Z,3.65
2023-05-01T06:58:30.300Z,5.65
2023-05-01T07:02:35.249Z,3.35
2023-05-01T07:06:38.830Z,5.97
2023-05-01T07:14:45.169Z,6.82
2023-05-01T07:18:49.637Z,4.50
2023-05-01T07:22:52.938Z,7.00
2023-05-01T07:31:01.556Z,3.00
2023-05-01T07:35:07.208Z,4.50
2023-05-01T07:39:09.888Z,4.78
2023-05-01T07:43:12.888Z,3.60
2023-05-01T07:47:15.883Z,4.13
2023-05-01T07:51:20.326Z,3.90
2023-05-01T07:55:23.655Z,4.45
2023-05-01T07:59:26.525Z,4.32
2023-05-01T08:03:30.413Z,4.75
2023-05-01T08:07:34.767Z,3.50
2023-05-01T08:11:37.813Z,4.70
2023-05-01T08:15:42.927Z,4.22
2023-05-01T08:19:46.247Z,2.70
2023-05-01T08:27:54.207Z,4.75
2023-05-01T08:31:57.720Z,5.85
2023-05-01T08:36:00.636Z,3.78
2023-05-01T08:40:08.810Z,8.45
2023-05-01T08:44:12.379Z,5.30
2023-05-01T08:48:18.568Z,4.25
2023-05-01T08:52:21.766Z,3.90
2023-05-01T08:56:26.768Z,3.80
2023-05-01T09:00:29.778Z,3.75
2023-05-01T09:08:36.727Z,4.07
2023-05-01T09:12:41.103Z,4.55
2023-05-01T09:16:43.815Z,4.47
2023-05-01T09:20:46.773Z,4.18
2023-05-01T09:24:49.905Z,4.50
2023-05-01T09:28:58.087Z,4.88
2023-05-01T09:33:11.608Z,4.90
2023-05-01T09:37:16.472Z,3.45
2023-05-01T09:41:20.964Z,4.90
2023-05-01T09:45:26.520Z,4.75
2023-05-01T09:49:45.711Z,4.30
2023-05-01T09:53:48.578Z,3.33
2023-05-01T09:57:51.788Z,3.80
2023-05-01T10:01:56.955Z,3.70
2023-05-01T10:06:02.013Z,2.78
2023-05-01T10:10:18.534Z,4.13
2023-05-01T10:14:24.009Z,5.13
2023-05-01T10:18:28.987Z,3.00
2023-05-01T10:22:31.916Z,4.55
2023-05-01T10:26:35.124Z,3.53
2023-05-01T10:30:39.243Z,4.30
2023-05-01T10:34:48.673Z,5.00
2023-05-01T10:38:51.446Z,3.85
2023-05-01T10:43:25.953Z,3.33
2023-05-01T10:47:47.787Z,4.13
2023-05-01T10:52:03.660Z,3.67
2023-05-01T10:56:06.929Z,7.40
2023-05-01T11:00:14.367Z,5.07
2023-05-01T11:04:51.048Z,6.00
2023-05-01T11:08:56.080Z,4.55
2023-05-01T11:12:58.930Z,7.60
2023-05-01T11:17:01.915Z,4.88
2023-05-01T11:21:04.900Z,4.88
2023-05-01T11:25:21.059Z,3.53
2023-05-01T11:29:24.149Z,5.97
2023-05-01T11:33:27.593Z,3.70
2023-05-01T11:37:41.046Z,4.65
2023-05-01T11:41:45.979Z,5.25
2023-05-01T11:45:54.533Z,5.57
2023-05-01T11:49:57.277Z,3.78
2023-05-01T11:54:01.511Z,3.65
2023-05-01T11:58:06.276Z,4.70
2023-05-01T12:02:19.729Z,4.95
2023-05-01T12:06:22.713Z,4.72
2023-05-01T12:14:30.786Z,3.30
2023-05-01T12:18:33.918Z,3.33
2023-05-01T12:22:36.688Z,3.90
2023-05-01T12:26:40.811Z,3.85
2023-05-01T12:30:45.946Z,4.63
2023-05-01T12:34:48.853Z,4.70
2023-05-01T12:38:57.114Z,6.15
2023-05-01T12:43:00.083Z,3.92
2023-05-01T12:47:08.796Z,2.35
2023-05-01T12:51:19.492Z,3.58
2023-05-01T12:55:22.551Z,3.35
2023-05-01T12:59:27.260Z,2.50
2023-05-01T13:03:32.253Z,2.60
2023-05-01T13:07:36.552Z,4.22
2023-05-01T13:11:39.458Z,3.13
2023-05-01T13:15:42.144Z,4.53
2023-05-01T13:19:46.549Z,3.25
2023-05-01T13:23:54.561Z,3.20
2023-05-01T13:27:57.329Z,4.28
2023-05-01T13:32:00.580Z,2.58
2023-05-01T13:36:14.209Z,2.72
2023-05-01T13:40:25.896Z,2.33
2023-05-01T13:44:29.251Z,3.58
2023-05-01T13:48:32.095Z,4.20
2023-05-01T13:52:42.251Z,4.82
2023-05-01T13:56:44.915Z,5.40
2023-05-01T14:00:47.874Z,6.25
2023-05-01T14:04:51.527Z,6.53
2023-05-01T14:08:59.901Z,7.97
2023-05-01T14:13:05.066Z,5.68
2023-05-01T14:17:08.308Z,4.65
2023-05-01T14:21:11.626Z,7.50
2023-05-01T14:25:35.419Z,7.68
2023-05-01T14:29:43.769Z,4.88
2023-05-01T14:33:47.269Z,4.53
2023-05-01T14:37:50.229Z,6.32
2023-05-01T14:41:58.273Z,3.33
2023-05-01T14:46:01.060Z,7.28
2023-05-01T14:50:04.606Z,5.05
2023-05-01T14:54:11.656Z,2.30
2023-05-01T14:58:17.536Z,3.63
2023-05-01T15:02:20.344Z,7.13
2023-05-01T15:06:24.414Z,4.65
2023-05-01T15:10:28.891Z,6.80
2023-05-01T15:14:32.941Z,4.30
2023-05-01T15:18:36.532Z,2.90
2023-05-01T15:22:40.937Z,1.98
2023-05-01T15:26:44.023Z,3.33
2023-05-01T15:30:48.521Z,2.20
2023-05-01T15:34:56.671Z,2.42
2023-05-01T15:38:59.611Z,5.80
2023-05-01T15:43:02.839Z,2.55
2023-05-01T15:51:09.779Z,3.35
2023-05-01T15:55:13.251Z,3.25
2023-05-01T15:59:16.332Z,4.65
2023-05-01T16:03:21.015Z,2.90
2023-05-01T16:07:23.847Z,4.10
2023-05-01T16:11:26.988Z,3.05
2023-05-01T16:19:37.586Z,2.45
2023-05-01T16:23:40.745Z,2.13
2023-05-01T16:27:44.625Z,3.83
2023-05-01T16:31:48.058Z,2.30
2023-05-01T16:35:52.236Z,5.32
2023-05-01T16:39:54.908Z,2.03
2023-05-01T16:44:00.445Z,2.15
2023-05-01T16:48:03.336Z,2.33
2023-05-01T16:52:10.733Z,3.13
2023-05-01T16:56:13.930Z,2.05
2023-05-01T17:04:20.334Z,3.38
2023-05-01T17:08:26.044Z,1.40
2023-05-01T17:12:29.494Z,2.38
2023-05-01T17:16:40.514Z,1.60
2023-05-01T17:20:43.534Z,4.10
2023-05-01T17:24:47.949Z,2.97
2023-05-01T17:28:50.992Z,6.70
2023-05-01T17:32:54.191Z,6.22
2023-05-01T17:36:57.904Z,4.07
2023-05-01T17:41:03.736Z,5.03
2023-05-01T17:45:07.806Z,2.70
2023-05-01T17:49:10.866Z,5.07
2023-05-01T17:53:13.641Z,3.97
2023-05-01T17:57:17.853Z,4.13
2023-05-01T18:01:20.610Z,3.17
2023-05-01T18:05:23.925Z,4.28
2023-05-01T18:09:26.691Z,9.48
2023-05-01T18:13:37.944Z,3.75
2023-05-01T18:17:41.114Z,8.98
2023-05-01T18:21:44.029Z,5.47
2023-05-01T18:25:47.136Z,4.90
2023-05-01T18:29:51.532Z,4.50
2023-05-01T18:33:55.210Z,3.80
2023-05-01T18:37:57.951Z,9.52
2023-05-01T18:42:01.439Z,4.03
2023-05-01T18:46:06.132Z,6.93
2023-05-01T18:50:10.153Z,17.30
2023-05-01T18:54:13.981Z,4.22
2023-05-01T18:58:17.310Z,5.45
2023-05-01T19:02:21.629Z,6.90
2023-05-01T19:06:24.615Z,5.43
2023-05-01T19:10:28.049Z,8.25
2023-05-01T19:14:30.980Z,5.75
2023-05-01T19:18:37.728Z,7.82
2023-05-01T19:22:40.963Z,5.35
2023-05-01T19:26:43.943Z,4.32
2023-05-01T19:30:46.703Z,6.40
2023-05-01T19:34:51.004Z,7.50
2023-05-01T19:38:54.323Z,8.23
2023-05-01T19:42:57.047Z,4.95
2023-05-01T19:47:00.025Z,7.18
2023-05-01T19:51:04.793Z,12.02
2023-05-01T19:55:08.416Z,7.93
2023-05-01T19:59:11.439Z,3.58
2023-05-01T20:03:15.632Z,4.93
2023-05-01T20:07:20.365Z,13.43
2023-05-01T20:11:23.090Z,6.07
2023-05-01T20:15:25.877Z,4.13
2023-05-01T20:19:28.971Z,3.83
2023-05-01T20:23:33.208Z,5.40
2023-05-01T20:27:35.989Z,4.50
2023-05-01T20:31:38.820Z,8.20
2023-05-01T20:35:41.799Z,5.93
2023-05-01T20:39:46.169Z,4.43
2023-05-01T20:43:49.102Z,5.43
2023-05-01T20:47:51.920Z,6.25
2023-05-01T20:51:56.737Z,4.10
2023-05-01T20:56:00.925Z,7.40
2023-05-01T21:00:04.591Z,7.05
2023-05-01T21:04:08.129Z,5.07
2023-05-01T21:08:11.063Z,5.25
2023-05-01T21:12:16.008Z,6.90
2023-05-01T21:16:20.264Z,4.38
2023-05-01T21:20:31.621Z,4.70
2023-05-01T21:24:35.332Z,6.15
2023-05-01T21:28:40.252Z,7.03
2023-05-01T21:32:43.499Z,5.47
2023-05-01T21:36:46.751Z,6.50
2023-05-01T21:40:49.936Z,7.43
2023-05-01T21:44:54.356Z,6.53
2023-05-01T21:48:57.094Z,6.80
2023-05-01T21:53:00.752Z,9.07
2023-05-01T21:57:05.562Z,8.07
2023-05-01T22:01:10.605Z,10.45
2023-05-01T22:05:15.448Z,11.35
2023-05-01T22:09:18.319Z,6.43
2023-05-01T22:13:21.052Z,10.55
2023-05-01T22:17:26.264Z,8.73
2023-05-01T22:21:30.840Z,10.52
2023-05-01T22:25:33.590Z,9.70
2023-05-01T22:29:36.738Z,9.55
2023-05-01T22:33:40.878Z,8.07
2023-05-01T22:37:43.704Z,7.00
2023-05-01T22:41:46.530Z,5.00
2023-05-01T22:45:49.681Z,6.43
2023-05-01T22:49:53.885Z,6.38
2023-05-01T22:53:57.029Z,6.28
2023-05-01T22:57:59.916Z,6.40
2023-05-01T23:02:03.357Z,7.15
2023-05-01T23:06:08.111Z,6.32
2023-05-01T23:10:11.333Z,5.80
2023-05-01T23:14:14.975Z,7.32
2023-05-01T23:18:22.843Z,10.93
2023-05-01T23:22:27.079Z,6.43
2023-05-01T23:26:30.043Z,7.53
2023-05-01T23:30:33.070Z,5.80
2023-05-01T23:34:35.852Z,8.65
2023-05-01T23:38:40.380Z,5.82
2023-05-01T23:42:43.945Z,7.72
2023-05-01T23:46:46.737Z,11.43
2023-05-01T23:50:49.816Z,8.30
2023-05-01T23:54:54.396Z,11.43
2023-05-01T23:58:57.600Z,10.68
